createdAt,value
2017-09-09T00:00:58.231Z,21.23
2017-09-09T00:03:25.998Z,21.32
2017-09-09T00:05:53.518Z,21.24
2017-09-09T00:08:21.135Z,21.24
2017-09-09T00:10:48.640Z,21.21
2017-09-09T00:13:16.174Z,21.26
2017-09-09T00:15:43.712Z,21.10
2017-09-09T00:18:11.214Z,21.06
2017-09-09T00:20:39.034Z,21.04
2017-09-09T00:23:06.683Z,21.02
2017-09-09T00:25:34.251Z,20.99
2017-09-09T00:28:01.950Z,21.13
2017-09-09T00:30:29.522Z,21.13
2017-09-09T00:32:57.263Z,21.02
2017-09-09T00:35:24.772Z,20.98
2017-09-09T00:37:52.326Z,20.85
2017-09-09T00:40:20.085Z,20.87
2017-09-09T00:42:47.641Z,20.83
2017-09-09T00:45:15.202Z,20.83
2017-09-09T00:47:42.722Z,20.86
2017-09-09T00:50:10.264Z,20.69
2017-09-09T00:52:37.831Z,20.73
2017-09-09T00:55:05.413Z,20.64
2017-09-09T00:57:32.973Z,20.59
2017-09-09T01:00:00.509Z,20.67
2017-09-09T01:02:28.052Z,20.61
2017-09-09T01:04:57.232Z,20.59
2017-09-09T01:07:24.850Z,20.64
2017-09-09T01:09:52.433Z,20.71
2017-09-09T01:12:19.981Z,20.64
2017-09-09T01:14:47.815Z,20.69
2017-09-09T01:17:15.418Z,20.72
2017-09-09T01:19:42.984Z,20.60
2017-09-09T01:22:10.554Z,20.58
2017-09-09T01:24:38.174Z,20.61
2017-09-09T01:27:05.725Z,20.62
2017-09-09T01:29:33.286Z,20.61
2017-09-09T01:32:00.888Z,20.58
2017-09-09T01:34:28.468Z,20.45
2017-09-09T01:36:56.063Z,20.43
2017-09-09T01:39:23.617Z,20.48
2017-09-09T01:41:51.130Z,20.41
2017-09-09T01:44:18.638Z,20.47
2017-09-09T01:46:46.219Z,20.39
2017-09-09T01:49:13.777Z,20.65
2017-09-09T01:51:41.311Z,20.44
2017-09-09T01:54:09.097Z,20.42
2017-09-09T01:56:37.533Z,20.42
2017-09-09T01:59:05.062Z,20.23
2017-09-09T02:01:32.621Z,20.30
2017-09-09T02:04:00.160Z,20.37
2017-09-09T02:06:27.719Z,20.22
2017-09-09T02:08:55.354Z,20.21
2017-09-09T02:11:22.875Z,20.21
2017-09-09T02:13:50.409Z,20.21
2017-09-09T02:16:18.020Z,20.17
2017-09-09T02:18:45.585Z,20.25
2017-09-09T02:21:13.162Z,20.11
2017-09-09T02:23:40.737Z,20.09
2017-09-09T02:26:08.534Z,20.22
2017-09-09T02:28:36.051Z,20.14
2017-09-09T02:31:03.659Z,20.05
2017-09-09T02:33:31.185Z,20.10
2017-09-09T02:35:58.743Z,20.18
2017-09-09T02:38:26.349Z,20.12
2017-09-09T02:40:53.909Z,19.90
2017-09-09T02:43:21.434Z,19.78
2017-09-09T02:45:49.017Z,20.06
2017-09-09T02:48:16.529Z,20.07
2017-09-09T02:50:44.061Z,20.01
2017-09-09T02:53:11.625Z,20.05
2017-09-09T02:55:39.162Z,19.94
2017-09-09T02:58:06.693Z,19.92
2017-09-09T03:00:34.257Z,19.92
2017-09-09T03:03:01.863Z,19.85
2017-09-09T03:05:29.397Z,19.78
2017-09-09T03:07:56.958Z,19.82
2017-09-09T03:10:24.486Z,19.68
2017-09-09T03:12:52.225Z,19.69
2017-09-09T03:15:19.799Z,19.58
2017-09-09T03:17:47.546Z,19.63
2017-09-09T03:20:15.064Z,19.72
2017-09-09T03:22:42.616Z,19.60
2017-09-09T03:25:10.174Z,19.60
2017-09-09T03:27:37.702Z,19.66
2017-09-09T03:30:06.617Z,19.58
2017-09-09T03:32:34.272Z,19.59
2017-09-09T03:35:02.824Z,19.72
2017-09-09T03:37:30.441Z,19.69
2017-09-09T03:39:57.954Z,19.55
2017-09-09T03:42:25.480Z,19.51
2017-09-09T03:44:53.025Z,19.37
2017-09-09T03:47:20.785Z,19.17
2017-09-09T03:49:48.301Z,19.28
2017-09-09T03:52:15.863Z,19.54
2017-09-09T03:54:43.984Z,19.46
2017-09-09T03:57:11.517Z,19.00
2017-09-09T03:59:39.117Z,19.28
2017-09-09T04:02:06.699Z,19.36
2017-09-09T04:04:34.233Z,19.26
2017-09-09T04:07:01.754Z,19.57
2017-09-09T04:09:29.528Z,19.59
2017-09-09T04:11:57.057Z,19.63
2017-09-09T04:14:24.597Z,19.60
2017-09-09T04:16:52.151Z,19.65
2017-09-09T04:19:19.936Z,19.69
2017-09-09T04:21:47.469Z,19.82
2017-09-09T04:24:15.395Z,19.91
2017-09-09T04:26:42.926Z,20.00
2017-09-09T04:29:10.465Z,20.09
2017-09-09T04:31:38.069Z,20.41
2017-09-09T04:34:05.630Z,20.76
2017-09-09T04:36:33.199Z,21.18
2017-09-09T04:39:00.810Z,21.37
2017-09-09T04:41:28.378Z,21.66
2017-09-09T04:43:56.136Z,21.92
2017-09-09T04:46:23.713Z,21.84
2017-09-09T04:48:51.235Z,21.44
2017-09-09T04:51:18.758Z,21.73
2017-09-09T04:53:46.290Z,22.15
2017-09-09T04:56:13.869Z,22.07
2017-09-09T04:58:41.362Z,21.89
2017-09-09T05:01:08.886Z,21.77
2017-09-09T05:03:36.370Z,21.76
2017-09-09T05:06:03.862Z,22.06
2017-09-09T05:08:31.615Z,22.46
2017-09-09T05:10:59.102Z,22.24
2017-09-09T05:13:26.650Z,22.33
2017-09-09T05:15:54.383Z,22.33
2017-09-09T05:18:21.858Z,22.22
2017-09-09T05:20:49.345Z,22.43
2017-09-09T05:23:16.882Z,22.55
2017-09-09T05:25:44.389Z,22.23
2017-09-09T05:28:11.884Z,21.65
2017-09-09T05:30:39.443Z,21.85
2017-09-09T05:33:07.304Z,21.69
2017-09-09T05:35:34.823Z,21.59
2017-09-09T05:38:02.390Z,21.45
2017-09-09T05:40:29.890Z,21.05
2017-09-09T05:42:57.382Z,20.85
2017-09-09T05:45:24.906Z,21.00
2017-09-09T05:47:52.414Z,20.72
2017-09-09T05:50:19.919Z,20.92
2017-09-09T05:52:47.478Z,21.01
2017-09-09T05:55:14.980Z,20.97
2017-09-09T05:57:42.514Z,20.70
2017-09-09T06:00:10.183Z,20.85
2017-09-09T06:02:37.676Z,20.68
2017-09-09T06:05:05.492Z,20.71
2017-09-09T06:07:33.035Z,20.70
2017-09-09T06:10:00.527Z,20.67
2017-09-09T06:12:28.250Z,20.55
2017-09-09T06:14:56.058Z,20.77
2017-09-09T06:17:23.596Z,20.83
2017-09-09T06:19:51.138Z,20.90
2017-09-09T06:22:18.681Z,21.00
2017-09-09T06:24:46.194Z,20.98
2017-09-09T06:27:13.686Z,20.96
2017-09-09T06:29:41.239Z,21.09
2017-09-09T06:32:08.770Z,20.98
2017-09-09T06:34:36.275Z,21.13
2017-09-09T06:37:03.757Z,21.85
2017-09-09T06:39:31.333Z,22.14
2017-09-09T06:41:59.253Z,21.77
2017-09-09T06:44:26.966Z,22.08
2017-09-09T06:46:54.504Z,22.14
2017-09-09T06:49:21.995Z,22.19
2017-09-09T06:51:49.495Z,22.35
2017-09-09T06:54:17.039Z,22.64
2017-09-09T06:56:44.746Z,23.01
2017-09-09T06:59:12.227Z,23.18
2017-09-09T07:01:40.119Z,23.73
2017-09-09T07:04:07.871Z,24.20
2017-09-09T07:06:35.384Z,24.80
2017-09-09T07:09:02.962Z,24.58
2017-09-09T07:11:30.485Z,25.29
2017-09-09T07:13:58.021Z,25.23
2017-09-09T07:16:25.613Z,25.68
2017-09-09T07:18:53.155Z,25.72
2017-09-09T07:21:20.679Z,26.25
2017-09-09T07:23:48.304Z,26.63
2017-09-09T07:26:15.851Z,26.82
2017-09-09T07:28:43.409Z,27.37
2017-09-09T07:31:10.990Z,26.67
2017-09-09T07:33:38.510Z,26.79
2017-09-09T07:36:06.049Z,26.58
2017-09-09T07:38:33.655Z,25.58
2017-09-09T07:41:01.186Z,25.29
2017-09-09T07:43:28.725Z,25.44
2017-09-09T07:45:56.298Z,25.87
2017-09-09T07:48:23.834Z,25.65
2017-09-09T07:50:51.356Z,25.32
2017-09-09T07:53:18.928Z,25.19
2017-09-09T07:55:46.461Z,25.21
2017-09-09T07:58:13.995Z,24.79
2017-09-09T08:00:41.587Z,24.89
2017-09-09T08:03:09.122Z,25.39
2017-09-09T08:05:36.812Z,25.64
2017-09-09T08:08:04.419Z,25.92
2017-09-09T08:10:32.206Z,26.30
2017-09-09T08:12:59.762Z,26.71
2017-09-09T08:15:27.344Z,27.27
2017-09-09T08:17:55.086Z,27.81
2017-09-09T08:20:22.608Z,27.44
2017-09-09T08:22:50.243Z,27.49
2017-09-09T08:25:17.830Z,27.47
2017-09-09T08:27:45.350Z,27.05
2017-09-09T08:30:13.002Z,27.49
2017-09-09T08:32:40.525Z,27.18
2017-09-09T08:35:08.067Z,27.72
2017-09-09T08:37:35.789Z,27.39
2017-09-09T08:40:03.322Z,27.09
2017-09-09T08:42:30.858Z,27.15
2017-09-09T08:44:58.417Z,27.43
2017-09-09T08:47:25.946Z,27.86
2017-09-09T08:49:53.508Z,28.19
2017-09-09T08:52:21.098Z,28.35
2017-09-09T08:54:48.847Z,29.33
2017-09-09T08:57:16.370Z,29.83
2017-09-09T08:59:43.954Z,29.75
2017-09-09T09:02:11.512Z,30.63
2017-09-09T09:04:39.062Z,30.58
2017-09-09T09:07:06.571Z,30.37
2017-09-09T09:09:34.108Z,30.76
2017-09-09T09:12:01.618Z,31.61
2017-09-09T09:14:29.147Z,30.38
2017-09-09T09:16:56.707Z,30.15
2017-09-09T09:19:24.460Z,29.55
2017-09-09T09:21:52.089Z,29.49
2017-09-09T09:24:19.795Z,30.31
2017-09-09T09:26:47.427Z,30.85
2017-09-09T09:29:14.950Z,31.72
2017-09-09T09:31:42.484Z,31.81
2017-09-09T09:34:10.461Z,31.86
2017-09-09T09:36:37.983Z,30.42
2017-09-09T09:39:05.551Z,30.54
2017-09-09T09:41:33.068Z,30.11
2017-09-09T09:44:00.592Z,29.80
2017-09-09T09:46:28.135Z,29.66
2017-09-09T09:48:55.908Z,29.75
2017-09-09T09:51:23.429Z,29.43
2017-09-09T09:53:51.008Z,29.79
2017-09-09T09:56:18.573Z,30.11
2017-09-09T09:58:46.189Z,30.21
2017-09-09T10:01:13.788Z,30.47
2017-09-09T10:03:41.513Z,30.29
2017-09-09T10:06:09.033Z,30.88
2017-09-09T10:08:36.603Z,29.68
2017-09-09T10:11:05.768Z,30.56
2017-09-09T10:13:33.390Z,30.54
2017-09-09T10:16:00.977Z,30.66
2017-09-09T10:18:28.513Z,30.83
2017-09-09T10:20:56.067Z,30.15
2017-09-09T10:23:23.648Z,30.31
2017-09-09T10:25:51.804Z,30.59
2017-09-09T10:28:19.356Z,30.43
2017-09-09T10:30:47.146Z,29.53
2017-09-09T10:33:14.706Z,29.34
2017-09-09T10:35:42.205Z,29.28
2017-09-09T10:38:09.788Z,29.66
2017-09-09T10:40:37.316Z,29.32
2017-09-09T10:43:04.846Z,29.21
2017-09-09T10:45:32.418Z,29.24
2017-09-09T10:47:59.957Z,29.98
2017-09-09T10:50:27.698Z,30.17
2017-09-09T10:52:55.302Z,29.74
2017-09-09T10:55:22.825Z,29.32
2017-09-09T10:57:50.376Z,30.00
2017-09-09T11:00:18.039Z,29.94
2017-09-09T11:02:45.562Z,29.91
2017-09-09T11:05:13.111Z,30.00
2017-09-09T11:07:40.661Z,29.76
2017-09-09T11:10:08.226Z,29.60
2017-09-09T11:12:35.767Z,29.72
2017-09-09T11:15:03.350Z,29.87
2017-09-09T11:17:30.910Z,29.78
2017-09-09T11:19:58.409Z,29.96
2017-09-09T11:22:26.017Z,30.33
2017-09-09T11:24:53.547Z,30.03
2017-09-09T11:27:21.304Z,29.95
2017-09-09T11:29:49.085Z,29.30
2017-09-09T11:32:16.667Z,29.11
2017-09-09T11:34:44.200Z,29.03
2017-09-09T11:37:11.770Z,29.03
2017-09-09T11:39:39.345Z,28.93
2017-09-09T11:42:07.122Z,29.00
2017-09-09T11:44:35.478Z,28.91
2017-09-09T11:47:03.097Z,29.23
2017-09-09T11:49:30.689Z,29.17
2017-09-09T11:51:58.207Z,28.72
2017-09-09T11:54:25.783Z,28.55
2017-09-09T11:56:53.328Z,28.59
2017-09-09T11:59:20.883Z,28.51
2017-09-09T12:01:48.442Z,28.62
2017-09-09T12:04:16.181Z,28.54
2017-09-09T12:06:43.924Z,28.18
2017-09-09T12:09:11.529Z,28.18
2017-09-09T12:11:40.989Z,28.36
2017-09-09T12:14:08.568Z,28.37
2017-09-09T12:16:36.465Z,27.90
2017-09-09T12:19:04.033Z,27.66
2017-09-09T12:21:31.617Z,27.58
2017-09-09T12:23:59.169Z,27.36
2017-09-09T12:26:26.730Z,27.21
2017-09-09T12:28:54.262Z,27.14
2017-09-09T12:31:21.818Z,27.09
2017-09-09T12:33:49.366Z,27.01
2017-09-09T12:36:16.917Z,26.96
2017-09-09T12:38:44.469Z,26.99
2017-09-09T12:41:11.987Z,26.82
2017-09-09T12:43:39.756Z,26.66
2017-09-09T12:46:07.348Z,26.60
2017-09-09T12:48:34.861Z,26.50
2017-09-09T12:51:02.616Z,26.37
2017-09-09T12:53:30.297Z,26.43
2017-09-09T12:55:57.839Z,26.14
2017-09-09T12:58:25.413Z,26.12
2017-09-09T13:00:53.128Z,26.27
2017-09-09T13:03:20.784Z,26.23
2017-09-09T13:05:48.609Z,26.45
2017-09-09T13:08:16.206Z,26.66
2017-09-09T13:10:43.717Z,26.23
2017-09-09T13:13:11.467Z,25.65
2017-09-09T13:15:39.022Z,25.38
2017-09-09T13:18:06.582Z,25.35
2017-09-09T13:20:34.138Z,25.26
2017-09-09T13:23:01.698Z,25.35
2017-09-09T13:25:29.443Z,25.34
2017-09-09T13:27:57.001Z,25.43
2017-09-09T13:30:24.600Z,25.45
2017-09-09T13:32:52.130Z,25.69
2017-09-09T13:35:19.637Z,25.75
2017-09-09T13:37:47.234Z,25.86
2017-09-09T13:40:14.769Z,25.91
2017-09-09T13:42:42.416Z,25.71
2017-09-09T13:45:09.980Z,25.42
2017-09-09T13:47:37.497Z,25.35
2017-09-09T13:50:05.038Z,25.37
2017-09-09T13:52:32.649Z,25.34
2017-09-09T13:55:00.995Z,25.24
2017-09-09T13:57:28.568Z,25.30
2017-09-09T13:59:56.420Z,25.13
2017-09-09T14:02:25.555Z,25.35
2017-09-09T14:04:54.824Z,25.30
2017-09-09T14:07:22.369Z,25.27
2017-09-09T14:09:49.914Z,25.30
2017-09-09T14:12:17.497Z,25.62
2017-09-09T14:14:45.098Z,25.59
2017-09-09T14:17:12.665Z,25.41
2017-09-09T14:19:40.251Z,25.57
2017-09-09T14:22:07.805Z,25.68
2017-09-09T14:24:35.365Z,25.82
2017-09-09T14:27:02.914Z,25.98
2017-09-09T14:29:30.466Z,25.89
2017-09-09T14:31:58.026Z,25.76
2017-09-09T14:34:25.645Z,25.85
2017-09-09T14:36:53.348Z,25.72
2017-09-09T14:39:20.947Z,25.76
2017-09-09T14:41:48.474Z,25.65
2017-09-09T14:44:16.037Z,25.48
2017-09-09T14:46:43.610Z,25.77
2017-09-09T14:49:11.201Z,25.72
2017-09-09T14:51:38.860Z,25.72
2017-09-09T14:54:06.455Z,25.79
2017-09-09T14:56:34.114Z,25.50
2017-09-09T14:59:01.855Z,25.20
2017-09-09T15:01:29.426Z,25.09
2017-09-09T15:03:57.276Z,25.19
2017-09-09T15:06:24.864Z,25.06
2017-09-09T15:08:52.443Z,25.15
2017-09-09T15:11:19.949Z,25.31
2017-09-09T15:13:47.488Z,25.39
2017-09-09T15:16:15.075Z,25.45
2017-09-09T15:18:42.595Z,25.56
2017-09-09T15:21:10.349Z,25.63
2017-09-09T15:23:37.926Z,25.71
2017-09-09T15:26:05.448Z,25.79
2017-09-09T15:28:32.991Z,25.72
2017-09-09T15:31:00.889Z,25.60
2017-09-09T15:33:28.436Z,25.47
2017-09-09T15:35:55.985Z,25.36
2017-09-09T15:38:23.580Z,25.29
2017-09-09T15:40:51.137Z,25.30
2017-09-09T15:43:18.697Z,25.31
2017-09-09T15:45:46.286Z,25.45
2017-09-09T15:48:13.821Z,25.20
2017-09-09T15:50:41.352Z,25.15
2017-09-09T15:53:08.927Z,25.18
2017-09-09T15:55:36.467Z,25.21
2017-09-09T15:58:04.106Z,25.21
2017-09-09T16:00:31.738Z,25.19
2017-09-09T16:02:59.536Z,25.18
2017-09-09T16:05:27.171Z,25.08
2017-09-09T16:07:54.805Z,25.09
2017-09-09T16:10:22.376Z,24.99
2017-09-09T16:12:50.082Z,24.84
2017-09-09T16:15:17.701Z,24.68
2017-09-09T16:17:45.296Z,24.64
2017-09-09T16:20:12.845Z,24.65
2017-09-09T16:22:40.422Z,24.64
2017-09-09T16:25:07.935Z,24.56
2017-09-09T16:27:35.506Z,24.48
2017-09-09T16:30:06.507Z,24.34
2017-09-09T16:32:34.246Z,24.26
2017-09-09T16:35:01.785Z,23.93
2017-09-09T16:37:29.388Z,23.88
2017-09-09T16:39:56.967Z,23.85
2017-09-09T16:42:24.474Z,23.69
2017-09-09T16:44:52.035Z,23.60
2017-09-09T16:47:19.547Z,23.43
2017-09-09T16:49:48.009Z,23.38
2017-09-09T16:52:15.588Z,23.39
2017-09-09T16:54:43.106Z,23.35
2017-09-09T16:57:10.614Z,23.20
2017-09-09T16:59:38.195Z,23.20
2017-09-09T17:02:05.744Z,23.23
2017-09-09T17:04:33.263Z,23.05
2017-09-09T17:07:01.020Z,23.12
2017-09-09T17:09:28.581Z,22.92
2017-09-09T17:11:56.350Z,22.76
2017-09-09T17:14:24.606Z,22.82
2017-09-09T17:16:52.178Z,22.65
2017-09-09T17:19:19.703Z,22.58
2017-09-09T17:21:48.697Z,22.29
2017-09-09T17:24:16.358Z,22.06
2017-09-09T17:26:43.915Z,22.06
2017-09-09T17:29:11.452Z,22.19
2017-09-09T17:31:39.042Z,22.22
2017-09-09T17:34:06.563Z,22.37
2017-09-09T17:36:34.077Z,22.37
2017-09-09T17:39:01.636Z,22.35
2017-09-09T17:41:29.172Z,22.19
2017-09-09T17:43:56.783Z,22.15
2017-09-09T17:46:24.351Z,22.17
2017-09-09T17:48:51.860Z,21.94
2017-09-09T17:51:19.620Z,22.15
2017-09-09T17:53:47.165Z,22.13
2017-09-09T17:56:14.664Z,22.00
2017-09-09T17:58:42.226Z,22.06
2017-09-09T18:01:09.895Z,21.88
2017-09-09T18:03:37.414Z,21.92
2017-09-09T18:06:04.937Z,22.03
2017-09-09T18:08:32.485Z,22.04
2017-09-09T18:11:00.015Z,22.08
2017-09-09T18:13:27.559Z,22.18
2017-09-09T18:15:55.127Z,22.23
2017-09-09T18:18:22.885Z,22.25
2017-09-09T18:20:50.634Z,22.16
2017-09-09T18:23:18.177Z,22.08
2017-09-09T18:25:49.861Z,22.23
2017-09-09T18:28:18.810Z,22.23
2017-09-09T18:30:46.382Z,22.11
2017-09-09T18:33:13.947Z,21.98
2017-09-09T18:35:48.646Z,22.09
2017-09-09T18:38:17.359Z,22.12
2017-09-09T18:40:44.869Z,22.10
2017-09-09T18:43:12.413Z,22.12
2017-09-09T18:45:40.003Z,21.92
2017-09-09T18:48:07.530Z,21.82
2017-09-09T18:50:35.269Z,21.86
2017-09-09T18:53:02.878Z,21.81
2017-09-09T18:55:30.396Z,21.92
2017-09-09T18:57:57.986Z,21.93
2017-09-09T19:00:25.940Z,21.81
2017-09-09T19:02:53.561Z,21.79
2017-09-09T19:05:21.190Z,21.95
2017-09-09T19:07:48.761Z,21.72
2017-09-09T19:10:16.780Z,21.68
2017-09-09T19:12:44.299Z,21.70
2017-09-09T19:15:11.903Z,21.65
2017-09-09T19:17:39.690Z,21.78
2017-09-09T19:20:07.229Z,21.61
2017-09-09T19:22:34.915Z,21.63
2017-09-09T19:25:02.493Z,21.67
2017-09-09T19:27:30.047Z,21.55
2017-09-09T19:29:57.645Z,21.49
2017-09-09T19:32:25.231Z,21.24
2017-09-09T19:34:52.766Z,21.27
2017-09-09T19:37:20.367Z,21.26
2017-09-09T19:39:48.023Z,21.43
2017-09-09T19:42:15.786Z,21.35
2017-09-09T19:44:43.354Z,21.30
2017-09-09T19:47:10.948Z,21.27
2017-09-09T19:49:38.476Z,21.26
2017-09-09T19:52:06.259Z,21.23
2017-09-09T19:54:33.891Z,21.03
2017-09-09T19:57:01.446Z,21.08
2017-09-09T19:59:29.207Z,21.07
2017-09-09T20:01:56.819Z,21.09
2017-09-09T20:04:24.427Z,21.20
2017-09-09T20:06:52.200Z,21.13
2017-09-09T20:09:19.947Z,21.25
2017-09-09T20:11:47.650Z,21.14
2017-09-09T20:14:15.265Z,21.04
2017-09-09T20:16:42.853Z,20.94
2017-09-09T20:19:10.414Z,20.69
2017-09-09T20:21:37.961Z,20.53
2017-09-09T20:24:05.662Z,20.42
2017-09-09T20:26:33.485Z,20.44
2017-09-09T20:29:01.081Z,20.43
2017-09-09T20:31:28.717Z,20.40
2017-09-09T20:33:56.266Z,19.88
2017-09-09T20:36:23.831Z,19.90
2017-09-09T20:38:51.467Z,19.99
2017-09-09T20:41:19.064Z,19.93
2017-09-09T20:43:46.644Z,19.97
2017-09-09T20:46:14.298Z,20.13
2017-09-09T20:48:41.910Z,19.94
2017-09-09T20:51:09.516Z,19.95
2017-09-09T20:53:37.129Z,20.00
2017-09-09T20:56:04.975Z,19.92
2017-09-09T20:58:32.566Z,20.11
2017-09-09T21:01:00.397Z,20.18
2017-09-09T21:03:27.990Z,20.21
2017-09-09T21:05:56.176Z,20.13
2017-09-09T21:08:23.792Z,20.24
2017-09-09T21:10:51.321Z,19.94
2017-09-09T21:13:20.275Z,20.01
2017-09-09T21:15:47.860Z,19.86
2017-09-09T21:18:15.619Z,19.96
2017-09-09T21:20:43.419Z,20.18
2017-09-09T21:23:11.054Z,20.16
2017-09-09T21:25:38.686Z,20.13
2017-09-09T21:28:06.298Z,20.22
2017-09-09T21:30:33.894Z,20.28
2017-09-09T21:33:01.688Z,20.41
2017-09-09T21:35:29.734Z,20.41
2017-09-09T21:37:58.087Z,20.29
2017-09-09T21:40:26.055Z,20.06
2017-09-09T21:42:54.568Z,19.79
2017-09-09T21:45:22.752Z,19.87
2017-09-09T21:47:50.593Z,20.03
2017-09-09T21:50:18.164Z,20.18
2017-09-09T21:52:45.761Z,20.17
2017-09-09T21:55:13.386Z,20.24
2017-09-09T21:57:41.176Z,20.27
2017-09-09T22:00:08.991Z,20.15
2017-09-09T22:02:36.810Z,20.21
2017-09-09T22:05:04.622Z,20.30
2017-09-09T22:07:32.215Z,20.31
2017-09-09T22:09:59.726Z,20.27
2017-09-09T22:12:27.358Z,20.35
2017-09-09T22:14:54.972Z,20.35
2017-09-09T22:17:22.549Z,20.29
2017-09-09T22:19:50.119Z,20.24
2017-09-09T22:22:17.705Z,20.23
2017-09-09T22:24:45.245Z,20.47
2017-09-09T22:27:13.039Z,20.22
2017-09-09T22:29:40.633Z,20.28
2017-09-09T22:32:08.256Z,20.37
2017-09-09T22:34:35.786Z,20.30
2017-09-09T22:37:03.369Z,20.20
2017-09-09T22:39:30.939Z,19.99
2017-09-09T22:41:58.448Z,19.90
2017-09-09T22:44:26.015Z,20.04
2017-09-09T22:46:53.640Z,20.12
2017-09-09T22:49:21.228Z,20.15
2017-09-09T22:51:48.789Z,20.12
2017-09-09T22:54:16.387Z,20.10
2017-09-09T22:56:43.924Z,20.16
2017-09-09T22:59:11.482Z,20.16
2017-09-09T23:01:39.085Z,20.06
2017-09-09T23:04:06.665Z,20.06
2017-09-09T23:06:34.485Z,20.06
2017-09-09T23:09:02.077Z,20.15
2017-09-09T23:11:29.667Z,20.04
2017-09-09T23:13:57.277Z,20.06
2017-09-09T23:16:24.904Z,20.05
2017-09-09T23:18:52.453Z,19.94
2017-09-09T23:21:19.997Z,19.96
2017-09-09T23:23:47.620Z,20.03
2017-09-09T23:26:15.155Z,20.07
2017-09-09T23:28:42.677Z,19.88
2017-09-09T23:31:10.256Z,19.86
2017-09-09T23:33:37.870Z,19.84
2017-09-09T23:36:05.400Z,19.99
2017-09-09T23:38:32.996Z,19.80
2017-09-09T23:41:00.578Z,19.52
2017-09-09T23:43:28.186Z,19.13
2017-09-09T23:45:55.768Z,18.91
2017-09-09T23:48:23.311Z,19.16
2017-09-09T23:50:50.838Z,19.24
2017-09-09T23:53:18.392Z,19.26
2017-09-09T23:55:45.917Z,19.40
2017-09-09T23:58:13.422Z,19.25
